sensor_id;sensor_type;location;lat;lon;timestamp;temperature;humidity
1680;DHT22;838;51.794;12.258;2024-02-14T00:00:12;5.60;32.20
1680;DHT22;838;51.794;12.258;2024-02-14T00:02:44;5.50;31.90
1680;DHT22;838;51.794;12.258;2024-02-14T00:05:11;5.60;33.40
1680;DHT22;838;51.794;12.258;2024-02-14T00:07:37;5.70;32.00
1680;DHT22;838;51.794;12.258;2024-02-14T00:10:03;5.70;29.30
1680;DHT22;838;51.794;12.258;2024-02-14T00:12:32;5.70;30.40
1680;DHT22;838;51.794;12.258;2024-02-14T00:14:58;5.70;30.90
1680;DHT22;838;51.794;12.258;2024-02-14T00:17:24;5.80;30.80
1680;DHT22;838;51.794;12.258;2024-02-14T00:19:50;5.90;29.50
1680;DHT22;838;51.794;12.258;2024-02-14T00:22:16;5.80;29.40
1680;DHT22;838;51.794;12.258;2024-02-14T00:24:42;5.80;29.30
1680;DHT22;838;51.794;12.258;2024-02-14T00:27:08;5.70;30.80
1680;DHT22;838;51.794;12.258;2024-02-14T00:29:34;5.80;31.40
1680;DHT22;838;51.794;12.258;2024-02-14T00:32:00;5.80;30.00
1680;DHT22;838;51.794;12.258;2024-02-14T00:34:26;5.90;30.10
1680;DHT22;838;51.794;12.258;2024-02-14T00:36:52;6.00;27.60
1680;DHT22;838;51.794;12.258;2024-02-14T00:39:18;6.10;28.40
1680;DHT22;838;51.794;12.258;2024-02-14T00:41:46;6.30;25.90
1680;DHT22;838;51.794;12.258;2024-02-14T00:44:13;6.50;25.50
1680;DHT22;838;51.794;12.258;2024-02-14T00:46:45;6.50;23.40
1680;DHT22;838;51.794;12.258;2024-02-14T00:49:11;6.40;24.30
1680;DHT22;838;51.794;12.258;2024-02-14T00:51:37;6.30;25.20
1680;DHT22;838;51.794;12.258;2024-02-14T00:54:04;6.30;24.30
1680;DHT22;838;51.794;12.258;2024-02-14T00:56:30;6.20;26.10
1680;DHT22;838;51.794;12.258;2024-02-14T00:58:55;6.20;25.90
1680;DHT22;838;51.794;12.258;2024-02-14T01:01:22;6.00;26.50
1680;DHT22;838;51.794;12.258;2024-02-14T01:03:48;5.90;28.20
1680;DHT22;838;51.794;12.258;2024-02-14T01:06:14;5.80;30.10
1680;DHT22;838;51.794;12.258;2024-02-14T01:08:41;5.80;31.50
1680;DHT22;838;51.794;12.258;2024-02-14T01:11:08;5.80;30.80
1680;DHT22;838;51.794;12.258;2024-02-14T01:13:34;5.90;32.10
1680;DHT22;838;51.794;12.258;2024-02-14T01:15:59;6.00;29.90
1680;DHT22;838;51.794;12.258;2024-02-14T01:18:25;5.80;31.60
1680;DHT22;838;51.794;12.258;2024-02-14T01:20:51;6.00;32.40
1680;DHT22;838;51.794;12.258;2024-02-14T01:23:16;6.10;29.90
1680;DHT22;838;51.794;12.258;2024-02-14T01:25:42;6.10;28.50
1680;DHT22;838;51.794;12.258;2024-02-14T01:28:09;6.20;28.80
1680;DHT22;838;51.794;12.258;2024-02-14T01:30:35;6.00;28.10
1680;DHT22;838;51.794;12.258;2024-02-14T01:33:02;5.80;30.80
1680;DHT22;838;51.794;12.258;2024-02-14T01:35:29;5.70;33.10
1680;DHT22;838;51.794;12.258;2024-02-14T01:37:55;5.60;33.60
1680;DHT22;838;51.794;12.258;2024-02-14T01:40:21;5.80;34.60
1680;DHT22;838;51.794;12.258;2024-02-14T01:42:47;5.90;32.50
1680;DHT22;838;51.794;12.258;2024-02-14T01:45:13;5.90;31.20
1680;DHT22;838;51.794;12.258;2024-02-14T01:47:38;5.80;32.00
1680;DHT22;838;51.794;12.258;2024-02-14T01:50:07;5.90;31.50
1680;DHT22;838;51.794;12.258;2024-02-14T01:52:40;6.20;30.00
1680;DHT22;838;51.794;12.258;2024-02-14T01:55:07;6.30;26.70
1680;DHT22;838;51.794;12.258;2024-02-14T01:57:33;6.40;27.30
1680;DHT22;838;51.794;12.258;2024-02-14T02:00:03;6.40;25.30
1680;DHT22;838;51.794;12.258;2024-02-14T02:02:34;6.30;24.80
1680;DHT22;838;51.794;12.258;2024-02-14T02:05:02;6.20;26.50
1680;DHT22;838;51.794;12.258;2024-02-14T02:07:28;6.20;26.20
1680;DHT22;838;51.794;12.258;2024-02-14T02:09:55;6.20;26.40
1680;DHT22;838;51.794;12.258;2024-02-14T02:12:21;6.30;26.90
1680;DHT22;838;51.794;12.258;2024-02-14T02:14:47;6.30;27.20
1680;DHT22;838;51.794;12.258;2024-02-14T02:17:12;6.50;26.30
1680;DHT22;838;51.794;12.258;2024-02-14T02:19:39;6.40;26.00
1680;DHT22;838;51.794;12.258;2024-02-14T02:22:04;6.30;27.20
1680;DHT22;838;51.794;12.258;2024-02-14T02:24:30;6.20;26.60
1680;DHT22;838;51.794;12.258;2024-02-14T02:26:56;6.00;28.50
1680;DHT22;838;51.794;12.258;2024-02-14T02:29:22;6.00;29.40
1680;DHT22;838;51.794;12.258;2024-02-14T02:31:48;6.00;30.90
1680;DHT22;838;51.794;12.258;2024-02-14T02:34:14;6.00;30.00
1680;DHT22;838;51.794;12.258;2024-02-14T02:36:40;6.00;31.30
1680;DHT22;838;51.794;12.258;2024-02-14T02:39:06;6.10;29.80
1680;DHT22;838;51.794;12.258;2024-02-14T02:41:33;6.10;30.70
1680;DHT22;838;51.794;12.258;2024-02-14T02:43:59;6.20;28.60
1680;DHT22;838;51.794;12.258;2024-02-14T02:46:25;6.10;28.10
1680;DHT22;838;51.794;12.258;2024-02-14T02:48:51;6.10;29.10
1680;DHT22;838;51.794;12.258;2024-02-14T02:51:20;6.00;28.60
1680;DHT22;838;51.794;12.258;2024-02-14T02:53:46;5.80;30.90
1680;DHT22;838;51.794;12.258;2024-02-14T02:56:12;5.70;32.80
1680;DHT22;838;51.794;12.258;2024-02-14T02:58:40;5.70;32.50
1680;DHT22;838;51.794;12.258;2024-02-14T03:01:10;5.60;34.00
1680;DHT22;838;51.794;12.258;2024-02-14T03:03:37;5.50;34.70
1680;DHT22;838;51.794;12.258;2024-02-14T03:06:04;5.50;35.20
1680;DHT22;838;51.794;12.258;2024-02-14T03:08:30;5.50;35.50
1680;DHT22;838;51.794;12.258;2024-02-14T03:11:05;5.70;34.20
1680;DHT22;838;51.794;12.258;2024-02-14T03:13:32;5.90;30.90
1680;DHT22;838;51.794;12.258;2024-02-14T03:15:57;6.00;29.70
1680;DHT22;838;51.794;12.258;2024-02-14T03:18:24;6.00;28.50
1680;DHT22;838;51.794;12.258;2024-02-14T03:20:50;5.80;29.70
1680;DHT22;838;51.794;12.258;2024-02-14T03:23:16;5.60;31.70
1680;DHT22;838;51.794;12.258;2024-02-14T03:25:42;5.40;34.20
1680;DHT22;838;51.794;12.258;2024-02-14T03:28:08;5.50;32.80
1680;DHT22;838;51.794;12.258;2024-02-14T03:30:35;5.40;34.70
1680;DHT22;838;51.794;12.258;2024-02-14T03:33:04;5.40;36.50
1680;DHT22;838;51.794;12.258;2024-02-14T03:35:30;5.50;36.50
1680;DHT22;838;51.794;12.258;2024-02-14T03:37:56;5.60;33.70
1680;DHT22;838;51.794;12.258;2024-02-14T03:40:22;5.60;32.20
1680;DHT22;838;51.794;12.258;2024-02-14T03:42:48;5.50;33.80
1680;DHT22;838;51.794;12.258;2024-02-14T03:45:14;5.40;35.60
1680;DHT22;838;51.794;12.258;2024-02-14T03:47:40;5.50;36.60
1680;DHT22;838;51.794;12.258;2024-02-14T03:50:08;5.60;34.60
1680;DHT22;838;51.794;12.258;2024-02-14T03:52:33;5.60;33.10
1680;DHT22;838;51.794;12.258;2024-02-14T03:55:00;5.50;35.40
1680;DHT22;838;51.794;12.258;2024-02-14T03:57:26;5.60;34.60
1680;DHT22;838;51.794;12.258;2024-02-14T04:00:06;5.60;33.80
1680;DHT22;838;51.794;12.258;2024-02-14T04:02:35;5.50;35.50
1680;DHT22;838;51.794;12.258;2024-02-14T04:05:01;5.50;35.40
1680;DHT22;838;51.794;12.258;2024-02-14T04:07:28;5.50;35.70
1680;DHT22;838;51.794;12.258;2024-02-14T04:09:55;5.40;34.90
1680;DHT22;838;51.794;12.258;2024-02-14T04:12:20;5.40;35.30
1680;DHT22;838;51.794;12.258;2024-02-14T04:14:46;5.40;37.50
1680;DHT22;838;51.794;12.258;2024-02-14T04:17:12;5.40;37.60
1680;DHT22;838;51.794;12.258;2024-02-14T04:19:39;5.40;37.50
1680;DHT22;838;51.794;12.258;2024-02-14T04:22:05;5.50;39.30
1680;DHT22;838;51.794;12.258;2024-02-14T04:24:33;5.70;35.20
1680;DHT22;838;51.794;12.258;2024-02-14T04:26:59;5.70;35.10
1680;DHT22;838;51.794;12.258;2024-02-14T04:29:26;5.70;35.80
1680;DHT22;838;51.794;12.258;2024-02-14T04:31:53;5.70;35.60
1680;DHT22;838;51.794;12.258;2024-02-14T04:34:19;5.60;36.00
1680;DHT22;838;51.794;12.258;2024-02-14T04:36:45;5.70;35.40
1680;DHT22;838;51.794;12.258;2024-02-14T04:39:11;5.70;34.30
1680;DHT22;838;51.794;12.258;2024-02-14T04:41:36;5.60;34.90
1680;DHT22;838;51.794;12.258;2024-02-14T04:44:04;5.50;36.50
1680;DHT22;838;51.794;12.258;2024-02-14T04:46:32;5.60;38.20
1680;DHT22;838;51.794;12.258;2024-02-14T04:49:00;5.60;35.70
1680;DHT22;838;51.794;12.258;2024-02-14T04:51:27;5.60;35.90
1680;DHT22;838;51.794;12.258;2024-02-14T04:53:53;5.60;35.70
1680;DHT22;838;51.794;12.258;2024-02-14T04:56:19;5.50;36.80
1680;DHT22;838;51.794;12.258;2024-02-14T04:58:44;5.50;37.20
1680;DHT22;838;51.794;12.258;2024-02-14T05:01:10;5.50;36.50
1680;DHT22;838;51.794;12.258;2024-02-14T05:03:36;5.40;38.40
1680;DHT22;838;51.794;12.258;2024-02-14T05:06:02;5.30;39.80
1680;DHT22;838;51.794;12.258;2024-02-14T05:08:28;5.30;40.60
1680;DHT22;838;51.794;12.258;2024-02-14T05:10:53;5.20;41.00
1680;DHT22;838;51.794;12.258;2024-02-14T05:13:19;5.30;40.50
1680;DHT22;838;51.794;12.258;2024-02-14T05:15:45;5.40;39.40
1680;DHT22;838;51.794;12.258;2024-02-14T05:18:10;5.40;40.00
1680;DHT22;838;51.794;12.258;2024-02-14T05:20:36;5.50;39.70
1680;DHT22;838;51.794;12.258;2024-02-14T05:23:06;5.50;40.20
1680;DHT22;838;51.794;12.258;2024-02-14T05:25:31;5.60;39.60
1680;DHT22;838;51.794;12.258;2024-02-14T05:27:58;5.70;39.10
1680;DHT22;838;51.794;12.258;2024-02-14T05:30:26;5.80;37.20
1680;DHT22;838;51.794;12.258;2024-02-14T05:32:52;5.80;35.70
1680;DHT22;838;51.794;12.258;2024-02-14T05:35:18;5.90;36.10
1680;DHT22;838;51.794;12.258;2024-02-14T05:37:43;6.00;34.50
1680;DHT22;838;51.794;12.258;2024-02-14T05:40:11;6.00;34.40
1680;DHT22;838;51.794;12.258;2024-02-14T05:42:37;6.10;32.70
1680;DHT22;838;51.794;12.258;2024-02-14T05:45:03;6.30;32.00
1680;DHT22;838;51.794;12.258;2024-02-14T05:47:29;6.40;32.10
1680;DHT22;838;51.794;12.258;2024-02-14T05:49:55;6.50;30.90
1680;DHT22;838;51.794;12.258;2024-02-14T05:52:21;6.60;28.80
1680;DHT22;838;51.794;12.258;2024-02-14T05:54:47;6.60;27.90
1680;DHT22;838;51.794;12.258;2024-02-14T05:57:13;6.70;27.90
1680;DHT22;838;51.794;12.258;2024-02-14T05:59:39;6.80;27.40
1680;DHT22;838;51.794;12.258;2024-02-14T06:02:05;6.90;26.80
1680;DHT22;838;51.794;12.258;2024-02-14T06:04:33;6.80;26.30
1680;DHT22;838;51.794;12.258;2024-02-14T06:06:59;6.90;26.50
1680;DHT22;838;51.794;12.258;2024-02-14T06:09:24;6.90;27.30
1680;DHT22;838;51.794;12.258;2024-02-14T06:11:50;6.90;27.00
1680;DHT22;838;51.794;12.258;2024-02-14T06:14:16;7.00;27.90
1680;DHT22;838;51.794;12.258;2024-02-14T06:16:42;6.90;27.50
1680;DHT22;838;51.794;12.258;2024-02-14T06:19:07;6.90;29.00
1680;DHT22;838;51.794;12.258;2024-02-14T06:21:34;6.90;31.00
1680;DHT22;838;51.794;12.258;2024-02-14T06:24:01;6.80;32.90
1680;DHT22;838;51.794;12.258;2024-02-14T06:26:27;6.80;34.70
1680;DHT22;838;51.794;12.258;2024-02-14T06:28:52;6.70;36.50
1680;DHT22;838;51.794;12.258;2024-02-14T06:31:20;6.70;39.50
1680;DHT22;838;51.794;12.258;2024-02-14T06:33:49;6.60;41.70
1680;DHT22;838;51.794;12.258;2024-02-14T06:36:15;6.60;44.70
1680;DHT22;838;51.794;12.258;2024-02-14T06:38:40;6.60;45.80
1680;DHT22;838;51.794;12.258;2024-02-14T06:41:06;6.60;46.50
1680;DHT22;838;51.794;12.258;2024-02-14T06:43:32;6.50;47.40
1680;DHT22;838;51.794;12.258;2024-02-14T06:45:58;6.50;48.70
1680;DHT22;838;51.794;12.258;2024-02-14T06:48:24;6.60;49.70
1680;DHT22;838;51.794;12.258;2024-02-14T06:50:53;6.60;49.80
1680;DHT22;838;51.794;12.258;2024-02-14T06:53:19;6.70;50.00
1680;DHT22;838;51.794;12.258;2024-02-14T06:55:44;6.60;51.00
1680;DHT22;838;51.794;12.258;2024-02-14T06:58:10;6.70;50.80
1680;DHT22;838;51.794;12.258;2024-02-14T07:00:36;6.80;49.70
1680;DHT22;838;51.794;12.258;2024-02-14T07:03:02;6.80;51.10
1680;DHT22;838;51.794;12.258;2024-02-14T07:05:29;6.80;52.00
1680;DHT22;838;51.794;12.258;2024-02-14T07:07:55;6.80;50.80
1680;DHT22;838;51.794;12.258;2024-02-14T07:10:21;6.80;51.60
1680;DHT22;838;51.794;12.258;2024-02-14T07:12:47;6.80;53.10
1680;DHT22;838;51.794;12.258;2024-02-14T07:15:12;6.90;51.90
1680;DHT22;838;51.794;12.258;2024-02-14T07:17:38;6.90;52.70
1680;DHT22;838;51.794;12.258;2024-02-14T07:20:05;7.00;50.40
1680;DHT22;838;51.794;12.258;2024-02-14T07:22:31;7.10;50.70
1680;DHT22;838;51.794;12.258;2024-02-14T07:24:57;7.20;50.10
1680;DHT22;838;51.794;12.258;2024-02-14T07:27:22;7.20;50.20
1680;DHT22;838;51.794;12.258;2024-02-14T07:29:49;7.40;49.50
1680;DHT22;838;51.794;12.258;2024-02-14T07:32:17;7.40;47.80
1680;DHT22;838;51.794;12.258;2024-02-14T07:34:42;7.40;46.90
1680;DHT22;838;51.794;12.258;2024-02-14T07:37:09;7.50;48.00
1680;DHT22;838;51.794;12.258;2024-02-14T07:39:35;7.60;45.50
1680;DHT22;838;51.794;12.258;2024-02-14T07:42:02;7.50;46.40
1680;DHT22;838;51.794;12.258;2024-02-14T07:44:28;7.60;47.10
1680;DHT22;838;51.794;12.258;2024-02-14T07:46:54;7.60;47.80
1680;DHT22;838;51.794;12.258;2024-02-14T07:49:19;7.60;47.70
1680;DHT22;838;51.794;12.258;2024-02-14T07:51:46;7.60;47.10
1680;DHT22;838;51.794;12.258;2024-02-14T07:54:11;7.60;49.20
1680;DHT22;838;51.794;12.258;2024-02-14T07:56:37;7.80;49.00
1680;DHT22;838;51.794;12.258;2024-02-14T07:59:03;7.90;47.00
1680;DHT22;838;51.794;12.258;2024-02-14T08:01:30;7.90;45.80
1680;DHT22;838;51.794;12.258;2024-02-14T08:03:56;8.00;46.40
1680;DHT22;838;51.794;12.258;2024-02-14T08:06:22;7.90;47.30
1680;DHT22;838;51.794;12.258;2024-02-14T08:08:48;7.90;46.60
1680;DHT22;838;51.794;12.258;2024-02-14T08:11:17;7.90;48.00
1680;DHT22;838;51.794;12.258;2024-02-14T08:13:43;8.10;46.70
1680;DHT22;838;51.794;12.258;2024-02-14T08:16:08;8.10;45.10
1680;DHT22;838;51.794;12.258;2024-02-14T08:18:34;8.40;43.50
1680;DHT22;838;51.794;12.258;2024-02-14T08:21:00;8.40;44.00
1680;DHT22;838;51.794;12.258;2024-02-14T08:23:26;8.40;41.90
1680;DHT22;838;51.794;12.258;2024-02-14T08:25:52;8.50;40.50
1680;DHT22;838;51.794;12.258;2024-02-14T08:28:17;8.50;41.80
1680;DHT22;838;51.794;12.258;2024-02-14T08:30:44;8.70;43.10
1680;DHT22;838;51.794;12.258;2024-02-14T08:33:09;8.70;40.40
1680;DHT22;838;51.794;12.258;2024-02-14T08:35:36;8.40;41.70
1680;DHT22;838;51.794;12.258;2024-02-14T08:38:02;8.80;41.30
1680;DHT22;838;51.794;12.258;2024-02-14T08:40:27;8.80;39.90
1680;DHT22;838;51.794;12.258;2024-02-14T08:42:53;8.70;40.70
1680;DHT22;838;51.794;12.258;2024-02-14T08:45:19;8.70;42.20
1680;DHT22;838;51.794;12.258;2024-02-14T08:47:45;8.70;42.50
1680;DHT22;838;51.794;12.258;2024-02-14T08:50:11;8.80;40.00
1680;DHT22;838;51.794;12.258;2024-02-14T08:52:37;8.90;40.50
1680;DHT22;838;51.794;12.258;2024-02-14T08:55:04;8.80;41.20
1680;DHT22;838;51.794;12.258;2024-02-14T08:57:31;8.80;40.40
1680;DHT22;838;51.794;12.258;2024-02-14T08:59:57;8.80;39.30
1680;DHT22;838;51.794;12.258;2024-02-14T09:02:22;8.90;41.30
1680;DHT22;838;51.794;12.258;2024-02-14T09:04:48;8.90;41.00
1680;DHT22;838;51.794;12.258;2024-02-14T09:07:15;8.90;39.80
1680;DHT22;838;51.794;12.258;2024-02-14T09:09:41;8.90;41.80
1680;DHT22;838;51.794;12.258;2024-02-14T09:12:07;8.90;41.90
1680;DHT22;838;51.794;12.258;2024-02-14T09:14:33;8.90;40.80
1680;DHT22;838;51.794;12.258;2024-02-14T09:16:59;9.00;41.50
1680;DHT22;838;51.794;12.258;2024-02-14T09:19:24;9.20;41.90
1680;DHT22;838;51.794;12.258;2024-02-14T09:21:51;9.30;41.20
1680;DHT22;838;51.794;12.258;2024-02-14T09:24:17;9.40;39.40
1680;DHT22;838;51.794;12.258;2024-02-14T09:26:42;9.40;38.40
1680;DHT22;838;51.794;12.258;2024-02-14T09:29:09;9.60;38.90
1680;DHT22;838;51.794;12.258;2024-02-14T09:31:36;9.70;37.20
1680;DHT22;838;51.794;12.258;2024-02-14T09:34:02;9.80;35.70
1680;DHT22;838;51.794;12.258;2024-02-14T09:36:28;9.80;36.10
1680;DHT22;838;51.794;12.258;2024-02-14T09:38:54;9.90;34.80
1680;DHT22;838;51.794;12.258;2024-02-14T09:41:36;9.80;34.70
1680;DHT22;838;51.794;12.258;2024-02-14T09:44:03;9.80;36.00
1680;DHT22;838;51.794;12.258;2024-02-14T09:46:29;9.80;37.10
1680;DHT22;838;51.794;12.258;2024-02-14T09:48:59;9.70;39.20
1680;DHT22;838;51.794;12.258;2024-02-14T09:51:25;9.70;41.30
1680;DHT22;838;51.794;12.258;2024-02-14T09:53:51;9.50;44.10
1680;DHT22;838;51.794;12.258;2024-02-14T09:56:20;9.40;46.60
1680;DHT22;838;51.794;12.258;2024-02-14T09:58:49;9.40;48.80
1680;DHT22;838;51.794;12.258;2024-02-14T10:01:26;9.40;50.20
1680;DHT22;838;51.794;12.258;2024-02-14T10:03:53;9.40;51.20
1680;DHT22;838;51.794;12.258;2024-02-14T10:06:19;9.50;52.00
1680;DHT22;838;51.794;12.258;2024-02-14T10:08:48;9.60;52.90
1680;DHT22;838;51.794;12.258;2024-02-14T10:11:14;9.60;51.80
1680;DHT22;838;51.794;12.258;2024-02-14T10:13:41;9.50;52.90
1680;DHT22;838;51.794;12.258;2024-02-14T10:16:11;9.50;53.00
1680;DHT22;838;51.794;12.258;2024-02-14T10:18:38;9.50;54.20
1680;DHT22;838;51.794;12.258;2024-02-14T10:21:05;9.50;53.70
1680;DHT22;838;51.794;12.258;2024-02-14T10:23:30;9.60;54.70
1680;DHT22;838;51.794;12.258;2024-02-14T10:25:58;9.50;55.20
1680;DHT22;838;51.794;12.258;2024-02-14T10:28:24;9.50;56.30
1680;DHT22;838;51.794;12.258;2024-02-14T10:30:50;9.60;56.20
1680;DHT22;838;51.794;12.258;2024-02-14T10:33:16;9.60;56.70
1680;DHT22;838;51.794;12.258;2024-02-14T10:35:42;9.70;55.10
1680;DHT22;838;51.794;12.258;2024-02-14T10:38:09;9.80;55.00
1680;DHT22;838;51.794;12.258;2024-02-14T10:40:36;9.80;56.50
1680;DHT22;838;51.794;12.258;2024-02-14T10:43:07;9.80;56.60
1680;DHT22;838;51.794;12.258;2024-02-14T10:45:36;9.70;57.30
1680;DHT22;838;51.794;12.258;2024-02-14T10:48:04;9.70;58.80
1680;DHT22;838;51.794;12.258;2024-02-14T10:50:34;9.70;58.40
1680;DHT22;838;51.794;12.258;2024-02-14T10:53:06;9.80;59.10
1680;DHT22;838;51.794;12.258;2024-02-14T10:55:34;9.80;60.50
1680;DHT22;838;51.794;12.258;2024-02-14T10:58:01;9.80;59.90
1680;DHT22;838;51.794;12.258;2024-02-14T11:00:28;10.00;58.90
1680;DHT22;838;51.794;12.258;2024-02-14T11:02:55;10.10;58.10
1680;DHT22;838;51.794;12.258;2024-02-14T11:05:21;10.10;56.10
1680;DHT22;838;51.794;12.258;2024-02-14T11:07:49;10.20;55.80
1680;DHT22;838;51.794;12.258;2024-02-14T11:10:21;10.20;56.00
1680;DHT22;838;51.794;12.258;2024-02-14T11:12:47;10.30;54.70
1680;DHT22;838;51.794;12.258;2024-02-14T11:15:24;10.40;52.10
1680;DHT22;838;51.794;12.258;2024-02-14T11:17:50;10.50;54.50
1680;DHT22;838;51.794;12.258;2024-02-14T11:23:02;10.70;50.30
1680;DHT22;838;51.794;12.258;2024-02-14T11:25:33;10.80;53.50
1680;DHT22;838;51.794;12.258;2024-02-14T11:28:19;11.00;50.80
1680;DHT22;838;51.794;12.258;2024-02-14T11:30:49;11.10;46.00
1680;DHT22;838;51.794;12.258;2024-02-14T11:33:15;11.20;46.50
1680;DHT22;838;51.794;12.258;2024-02-14T11:35:42;11.30;45.30
1680;DHT22;838;51.794;12.258;2024-02-14T11:38:09;11.50;44.90
1680;DHT22;838;51.794;12.258;2024-02-14T11:40:36;11.50;42.90
1680;DHT22;838;51.794;12.258;2024-02-14T11:43:04;11.50;43.00
1680;DHT22;838;51.794;12.258;2024-02-14T11:45:30;11.40;42.60
1680;DHT22;838;51.794;12.258;2024-02-14T11:47:56;11.40;43.00
1680;DHT22;838;51.794;12.258;2024-02-14T11:50:22;11.50;42.60
1680;DHT22;838;51.794;12.258;2024-02-14T11:52:48;11.60;41.30
1680;DHT22;838;51.794;12.258;2024-02-14T11:55:17;11.50;40.60
1680;DHT22;838;51.794;12.258;2024-02-14T11:57:44;11.60;42.10
1680;DHT22;838;51.794;12.258;2024-02-14T12:00:09;11.70;41.70
1680;DHT22;838;51.794;12.258;2024-02-14T12:02:35;11.70;39.40
1680;DHT22;838;51.794;12.258;2024-02-14T12:05:01;11.80;39.50
1680;DHT22;838;51.794;12.258;2024-02-14T12:07:30;11.80;36.20
1680;DHT22;838;51.794;12.258;2024-02-14T12:09:56;11.90;37.70
1680;DHT22;838;51.794;12.258;2024-02-14T12:12:22;11.80;35.90
1680;DHT22;838;51.794;12.258;2024-02-14T12:14:54;11.70;35.70
1680;DHT22;838;51.794;12.258;2024-02-14T12:17:20;11.50;35.40
1680;DHT22;838;51.794;12.258;2024-02-14T12:19:49;11.50;37.40
1680;DHT22;838;51.794;12.258;2024-02-14T12:22:16;11.60;37.50
1680;DHT22;838;51.794;12.258;2024-02-14T12:24:46;11.70;38.70
1680;DHT22;838;51.794;12.258;2024-02-14T12:27:16;11.80;36.40
1680;DHT22;838;51.794;12.258;2024-02-14T12:29:45;11.80;33.50
1680;DHT22;838;51.794;12.258;2024-02-14T12:32:10;11.90;34.40
1680;DHT22;838;51.794;12.258;2024-02-14T12:34:37;12.00;34.30
1680;DHT22;838;51.794;12.258;2024-02-14T12:37:03;12.00;34.50
1680;DHT22;838;51.794;12.258;2024-02-14T12:39:29;12.10;34.40
1680;DHT22;838;51.794;12.258;2024-02-14T12:41:55;12.10;34.40
1680;DHT22;838;51.794;12.258;2024-02-14T12:44:21;12.20;34.40
1680;DHT22;838;51.794;12.258;2024-02-14T12:46:47;12.30;32.70
1680;DHT22;838;51.794;12.258;2024-02-14T12:49:12;12.30;31.80
1680;DHT22;838;51.794;12.258;2024-02-14T12:51:39;12.40;30.90
1680;DHT22;838;51.794;12.258;2024-02-14T12:54:05;12.50;32.40
1680;DHT22;838;51.794;12.258;2024-02-14T12:56:32;12.70;31.80
1680;DHT22;838;51.794;12.258;2024-02-14T12:58:59;12.80;30.10
1680;DHT22;838;51.794;12.258;2024-02-14T13:01:27;13.00;30.00
1680;DHT22;838;51.794;12.258;2024-02-14T13:03:53;13.10;27.80
1680;DHT22;838;51.794;12.258;2024-02-14T13:06:19;13.30;27.00
1680;DHT22;838;51.794;12.258;2024-02-14T13:08:44;13.30;25.40
1680;DHT22;838;51.794;12.258;2024-02-14T13:11:11;13.20;26.90
1680;DHT22;838;51.794;12.258;2024-02-14T13:13:36;13.10;27.40
1680;DHT22;838;51.794;12.258;2024-02-14T13:16:02;13.10;27.20
1680;DHT22;838;51.794;12.258;2024-02-14T13:18:28;13.10;25.20
1680;DHT22;838;51.794;12.258;2024-02-14T13:20:54;12.90;24.90
1680;DHT22;838;51.794;12.258;2024-02-14T13:23:25;13.00;25.90
1680;DHT22;838;51.794;12.258;2024-02-14T13:25:51;12.90;26.50
1680;DHT22;838;51.794;12.258;2024-02-14T13:28:17;12.90;27.10
1680;DHT22;838;51.794;12.258;2024-02-14T13:30:43;12.90;26.30
1680;DHT22;838;51.794;12.258;2024-02-14T13:33:09;12.90;26.40
1680;DHT22;838;51.794;12.258;2024-02-14T13:35:37;12.80;27.10
1680;DHT22;838;51.794;12.258;2024-02-14T13:38:04;12.90;26.10
1680;DHT22;838;51.794;12.258;2024-02-14T13:40:31;12.90;25.80
1680;DHT22;838;51.794;12.258;2024-02-14T13:42:57;12.90;26.00
1680;DHT22;838;51.794;12.258;2024-02-14T13:45:23;12.90;26.20
1680;DHT22;838;51.794;12.258;2024-02-14T13:47:50;13.00;25.50
1680;DHT22;838;51.794;12.258;2024-02-14T13:50:16;13.10;25.50
1680;DHT22;838;51.794;12.258;2024-02-14T13:52:42;13.00;24.60
1680;DHT22;838;51.794;12.258;2024-02-14T13:55:08;12.90;25.30
1680;DHT22;838;51.794;12.258;2024-02-14T13:57:37;12.80;25.00
1680;DHT22;838;51.794;12.258;2024-02-14T14:00:06;12.80;25.30
1680;DHT22;838;51.794;12.258;2024-02-14T14:02:35;12.80;25.60
1680;DHT22;838;51.794;12.258;2024-02-14T14:05:06;12.70;25.60
1680;DHT22;838;51.794;12.258;2024-02-14T14:07:40;12.80;25.90
1680;DHT22;838;51.794;12.258;2024-02-14T14:10:07;12.70;26.60
1680;DHT22;838;51.794;12.258;2024-02-14T14:12:33;13.00;26.00
1680;DHT22;838;51.794;12.258;2024-02-14T14:15:00;13.10;24.70
1680;DHT22;838;51.794;12.258;2024-02-14T14:17:25;13.00;24.10
1680;DHT22;838;51.794;12.258;2024-02-14T14:19:52;13.00;25.20
1680;DHT22;838;51.794;12.258;2024-02-14T14:22:18;13.00;24.70
1680;DHT22;838;51.794;12.258;2024-02-14T14:24:43;13.00;25.20
1680;DHT22;838;51.794;12.258;2024-02-14T14:27:09;13.00;25.90
1680;DHT22;838;51.794;12.258;2024-02-14T14:29:39;13.20;25.40
1680;DHT22;838;51.794;12.258;2024-02-14T14:32:07;13.10;24.80
1680;DHT22;838;51.794;12.258;2024-02-14T14:34:33;12.80;25.70
1680;DHT22;838;51.794;12.258;2024-02-14T14:36:59;12.70;26.80
1680;DHT22;838;51.794;12.258;2024-02-14T14:39:25;12.60;28.10
1680;DHT22;838;51.794;12.258;2024-02-14T14:41:51;12.70;28.50
1680;DHT22;838;51.794;12.258;2024-02-14T14:44:19;12.80;26.80
1680;DHT22;838;51.794;12.258;2024-02-14T14:46:45;12.60;26.70
1680;DHT22;838;51.794;12.258;2024-02-14T14:49:11;12.30;28.00
1680;DHT22;838;51.794;12.258;2024-02-14T14:51:37;12.40;29.00
1680;DHT22;838;51.794;12.258;2024-02-14T14:54:04;12.30;29.90
1680;DHT22;838;51.794;12.258;2024-02-14T14:56:30;12.20;31.20
1680;DHT22;838;51.794;12.258;2024-02-14T14:58:56;12.20;32.20
1680;DHT22;838;51.794;12.258;2024-02-14T15:01:24;12.20;32.30
1680;DHT22;838;51.794;12.258;2024-02-14T15:03:50;12.30;31.40
1680;DHT22;838;51.794;12.258;2024-02-14T15:06:18;12.20;31.00
1680;DHT22;838;51.794;12.258;2024-02-14T15:08:44;12.20;31.90
1680;DHT22;838;51.794;12.258;2024-02-14T15:11:11;12.10;32.20
1680;DHT22;838;51.794;12.258;2024-02-14T15:13:40;12.10;32.20
1680;DHT22;838;51.794;12.258;2024-02-14T15:16:06;12.20;34.00
1680;DHT22;838;51.794;12.258;2024-02-14T15:18:34;12.30;32.40
1680;DHT22;838;51.794;12.258;2024-02-14T15:21:00;12.30;32.30
1680;DHT22;838;51.794;12.258;2024-02-14T15:23:27;12.30;31.00
1680;DHT22;838;51.794;12.258;2024-02-14T15:25:53;12.20;31.60
1680;DHT22;838;51.794;12.258;2024-02-14T15:28:31;12.10;32.10
1680;DHT22;838;51.794;12.258;2024-02-14T15:31:04;12.00;33.20
1680;DHT22;838;51.794;12.258;2024-02-14T15:33:49;11.90;34.00
1680;DHT22;838;51.794;12.258;2024-02-14T15:36:14;12.00;33.10
1680;DHT22;838;51.794;12.258;2024-02-14T15:38:41;12.00;33.20
1680;DHT22;838;51.794;12.258;2024-02-14T15:41:07;11.90;33.50
1680;DHT22;838;51.794;12.258;2024-02-14T15:43:35;11.90;34.50
1680;DHT22;838;51.794;12.258;2024-02-14T15:46:00;11.90;33.20
1680;DHT22;838;51.794;12.258;2024-02-14T15:48:26;11.90;33.80
1680;DHT22;838;51.794;12.258;2024-02-14T15:50:54;11.80;34.40
1680;DHT22;838;51.794;12.258;2024-02-14T15:53:20;11.80;35.40
1680;DHT22;838;51.794;12.258;2024-02-14T15:55:45;11.80;35.60
1680;DHT22;838;51.794;12.258;2024-02-14T15:58:11;11.70;35.20
1680;DHT22;838;51.794;12.258;2024-02-14T16:00:38;11.70;35.20
1680;DHT22;838;51.794;12.258;2024-02-14T16:03:04;11.80;36.20
1680;DHT22;838;51.794;12.258;2024-02-14T16:05:31;11.80;35.40
1680;DHT22;838;51.794;12.258;2024-02-14T16:07:57;11.90;35.40
1680;DHT22;838;51.794;12.258;2024-02-14T16:10:22;11.80;34.60